Airfield :
LOGIN :

Register | Disclaimer

   EN    FR    IT 

 










Legend :    VFR   Marginal VFR   IFR   Intensive IFR   Very Intensive IFR
Visi :
Ceiling :
>= 8 km
>= 3000ft
5 to 8 km
1000 to 3000 ft
1500m to 5 km
500 to 1000 ft
800 to 1500m
200 to 500 ft
< 800m
< 200 ft
Symbols :   Thunderstorms  Fog  Heavy snow  Heavy precipitations  Wind > 20 kt
SIGMETs :     Misc.  Thunderstorms  Icing  Turbulence  Mountain Waves  Volcanic Ashes







- Airport Elevation : 74 ft
- IATA code : NDZ


ETMN - Cuxhaven Nordholz Sea AB

CURRENT METAR :
  • 210748Z 23008KT 3700 BR SCT060 BKN080 M04/M05 Q1021 GRN GRN TEMPO YLO

EXPIRED METARs :
  • 210720Z 22009KT 3000 BR SCT080 BKN110 M04/M05 Q1021 YLO GRN TEMPO YLO
  • 210620Z 22008KT 4000 BR BKN078 BKN110 M05/M06 Q1021 GRN GRN TEMPO YLO
  • 210520Z 24006KT 4500 BR SCT120 BKN290 M05/M06 Q1021 GRN GRN TEMPO YLO

TAF COR TAF ETMN
Valid from the 21 at 06:00 until the 21 at 15:00 UTC


210523Z 2106/2115 22010KT 4000 BR BKN080
TEMPO 2106/2109 22010KT 3000 BR BKN080
BECMG 2107/2109 24015KT 5000 BR SCT020 BKN050
TEMPO 2109/2111 24015KT 3000 SN SCT005 BKN010
BECMG 2110/2112 25015KT 6000 NSW SCT025
No reported NOTAMs for that airfield.



MET'MAP, your aeronautical weather chart ! - Copyright ORBIFLY December 2007 - Disclaimer

ORBIFLY MET'MAP TEAM :

Programming & Development : Alexandra Zaïnal
Concept & Development : Baudouin d'Aumeries
Co-Development & Prog : Marc-Olivier Méhu
Technical & hardware support : Manuel Goepfert

Contact : metmap@orbifly.com




SOURCES & CREDITS :

   NOAA